Time;durP1;ratioP1;P1;durP2;ratioP2;P2;SDS_P1;SDS_P2;PMS_P1;PMS_P2;Temp;Humidity;BMP_temperature;BMP_pressure;BME280_temperature;BME280_humidity;BME280_pressure;Samples;Min_cycle;Max_cycle;Signal;HPM_P1;HPM_P2
2023/07/23 00:02:25;;;;;;;8.13;7.30;;;15.20;99.90;;;;;;5053511;28;20179;-45
2023/07/23 00:04:51;;;;;;;8.90;7.37;;;15.30;99.90;;;;;;5071725;28;20264;-48
2023/07/23 00:07:17;;;;;;;7.90;6.60;;;15.30;99.90;;;;;;5053070;28;20208;-44
2023/07/23 00:09:43;;;;;;;7.63;6.80;;;15.30;99.90;;;;;;5053567;28;20177;-44
2023/07/23 00:12:08;;;;;;;10.60;7.97;;;15.20;99.90;;;;;;5053776;28;20234;-44
2023/07/23 00:14:34;;;;;;;9.50;7.83;;;15.30;99.90;;;;;;5053613;28;20173;-45
2023/07/23 00:17:00;;;;;;;8.93;8.13;;;15.30;99.90;;;;;;5054341;28;20200;-44
2023/07/23 00:19:25;;;;;;;12.67;11.57;;;15.30;99.90;;;;;;5054171;28;20169;-44
2023/07/23 00:21:51;;;;;;;15.87;14.70;;;15.30;99.90;;;;;;5072585;28;20203;-48
2023/07/23 00:24:21;;;;;;;17.50;16.27;;;15.30;99.90;;;;;;5054896;28;20173;-49
2023/07/23 00:26:47;;;;;;;15.83;14.27;;;15.30;99.90;;;;;;5072448;28;20169;-49
2023/07/23 00:29:12;;;;;;;14.07;12.87;;;15.40;99.90;;;;;;5072018;28;20204;-46
2023/07/23 00:31:38;;;;;;;14.07;12.83;;;15.40;99.90;;;;;;5070575;28;20482;-45
2023/07/23 00:34:06;;;;;;;13.53;12.33;;;15.40;99.90;;;;;;5070784;28;20169;-44
2023/07/23 00:36:32;;;;;;;12.77;11.87;;;15.50;99.90;;;;;;5051626;28;20331;-45
2023/07/23 00:38:58;;;;;;;10.77;9.87;;;15.50;99.90;;;;;;5070435;28;20183;-45
2023/07/23 00:41:23;;;;;;;10.80;9.73;;;15.50;99.90;;;;;;5069941;28;20173;-46
2023/07/23 00:43:49;;;;;;;12.27;11.10;;;15.50;99.90;;;;;;5050922;28;20510;-44
2023/07/23 00:46:15;;;;;;;11.77;10.63;;;15.50;99.90;;;;;;5073051;28;20173;-44
2023/07/23 00:48:41;;;;;;;10.13;9.13;;;15.50;99.90;;;;;;5055176;28;20254;-44
2023/07/23 00:51:07;;;;;;;12.10;9.73;;;15.60;99.90;;;;;;5055678;28;20184;-46
2023/07/23 00:53:33;;;;;;;11.80;10.60;;;15.50;99.90;;;;;;5056157;28;20188;-47
2023/07/23 00:55:59;;;;;;;11.17;10.30;;;15.50;99.90;;;;;;5074577;28;20180;-50
2023/07/23 00:58:24;;;;;;;11.73;10.73;;;15.50;99.90;;;;;;5068382;28;20244;-45
2023/07/23 01:00:50;;;;;;;11.43;10.40;;;15.50;99.90;;;;;;5075181;28;20179;-46
2023/07/23 01:03:16;;;;;;;11.60;10.40;;;15.60;99.90;;;;;;5075511;28;20190;-46
2023/07/23 01:05:45;;;;;;;11.70;10.57;;;15.50;99.90;;;;;;5076622;28;20195;-47
2023/07/23 01:08:11;;;;;;;11.77;10.70;;;15.60;99.90;;;;;;5077840;28;20199;-44
2023/07/23 01:10:37;;;;;;;10.53;9.60;;;15.60;99.90;;;;;;5076695;28;20338;-47
2023/07/23 01:13:04;;;;;;;12.27;11.17;;;15.50;99.90;;;;;;5092806;28;20172;-45
2023/07/23 01:15:31;;;;;;;11.97;10.87;;;15.50;99.90;;;;;;5094787;28;20191;-44
2023/07/23 01:18:00;;;;;;;15.17;13.97;;;15.50;99.90;;;;;;5095806;28;20199;-46
2023/07/23 01:20:25;;;;;;;14.93;13.63;;;15.50;99.90;;;;;;5077278;28;20176;-46
2023/07/23 01:22:51;;;;;;;16.53;15.33;;;15.40;99.90;;;;;;5094424;28;20172;-46
2023/07/23 01:25:17;;;;;;;17.30;16.00;;;15.40;99.90;;;;;;5077352;28;20180;-45
2023/07/23 01:27:43;;;;;;;14.70;13.10;;;15.40;99.90;;;;;;5094705;28;20400;-46
2023/07/23 01:30:09;;;;;;;15.17;13.73;;;15.30;99.90;;;;;;5077573;28;20485;-44
2023/07/23 01:32:36;;;;;;;12.10;10.90;;;15.40;99.90;;;;;;5075397;28;20442;-46
2023/07/23 01:35:08;;;;;;;12.27;10.67;;;15.40;99.90;;;;;;5075256;28;20279;-45
2023/07/23 01:37:34;;;;;;;12.40;9.50;;;15.40;99.90;;;;;;5074660;28;20280;-44
2023/07/23 01:40:03;;;;;;;12.40;8.67;;;15.30;99.90;;;;;;5093485;28;20180;-46
2023/07/23 01:42:31;;;;;;;16.07;10.77;;;15.40;99.90;;;;;;5093799;28;20172;-44
2023/07/23 01:45:03;;;;;;;12.60;11.30;;;15.40;99.90;;;;;;5092483;28;20164;-44
2023/07/23 01:47:30;;;;;;;10.87;9.63;;;15.40;99.90;;;;;;5078045;28;20215;-47
2023/07/23 01:49:55;;;;;;;12.90;11.60;;;15.40;99.90;;;;;;5078423;28;20424;-45
2023/07/23 01:52:21;;;;;;;13.50;12.10;;;15.40;99.90;;;;;;5078596;28;20183;-45
2023/07/23 01:54:47;;;;;;;12.37;11.17;;;15.40;99.90;;;;;;5078709;28;20274;-44
2023/07/23 01:57:13;;;;;;;12.70;10.77;;;15.40;99.90;;;;;;5094543;28;20168;-45
2023/07/23 01:59:38;;;;;;;12.33;11.10;;;15.40;99.90;;;;;;5076181;28;20536;-44
2023/07/23 02:02:09;;;;;;;16.13;12.13;;;15.40;99.90;;;;;;5077016;28;20266;-48
2023/07/23 02:04:35;;;;;;;13.53;11.07;;;15.50;99.90;;;;;;5077592;28;20176;-43
2023/07/23 02:07:01;;;;;;;14.33;11.40;;;15.50;99.90;;;;;;5078198;28;20168;-45
2023/07/23 02:09:26;;;;;;;13.37;11.00;;;15.40;99.90;;;;;;5076964;28;20586;-48
2023/07/23 02:11:52;;;;;;;15.10;11.90;;;15.40;99.90;;;;;;5095131;28;20245;-49
2023/07/23 02:14:18;;;;;;;12.20;10.73;;;15.30;99.90;;;;;;5076918;28;20696;-46
2023/07/23 02:16:43;;;;;;;13.77;10.63;;;15.30;99.90;;;;;;5077369;28;20176;-51
2023/07/23 02:19:09;;;;;;;11.83;9.60;;;15.40;99.90;;;;;;5077649;28;20202;-44
2023/07/23 02:21:35;;;;;;;10.10;9.10;;;15.40;99.90;;;;;;5094693;28;20172;-47
2023/07/23 02:24:01;;;;;;;12.17;10.60;;;15.50;99.90;;;;;;5077435;28;20401;-48
2023/07/23 02:26:26;;;;;;;12.93;11.17;;;15.40;99.90;;;;;;5077233;28;20742;-46
2023/07/23 02:28:52;;;;;;;13.03;10.00;;;15.40;99.90;;;;;;5094017;28;20356;-47
2023/07/23 02:31:18;;;;;;;11.67;10.23;;;15.50;99.90;;;;;;5077456;28;20164;-44
2023/07/23 02:33:43;;;;;;;11.73;10.63;;;15.50;99.90;;;;;;5094875;28;20161;-45
2023/07/23 02:36:10;;;;;;;13.13;11.93;;;15.50;99.90;;;;;;5075915;28;20453;-43
2023/07/23 02:38:36;;;;;;;11.83;10.67;;;15.50;99.90;;;;;;5073831;28;20171;-48
2023/07/23 02:41:01;;;;;;;13.43;12.13;;;15.50;99.90;;;;;;5091804;28;20172;-46
2023/07/23 02:43:27;;;;;;;13.47;12.07;;;15.50;99.90;;;;;;5072706;28;20176;-46
2023/07/23 02:45:53;;;;;;;12.17;11.07;;;15.50;99.90;;;;;;5073386;28;20175;-47
2023/07/23 02:48:19;;;;;;;13.73;12.17;;;15.50;99.90;;;;;;5090850;28;20554;-46
2023/07/23 02:50:45;;;;;;;11.40;10.37;;;15.50;99.90;;;;;;5073600;28;20164;-45
2023/07/23 02:53:10;;;;;;;12.27;10.67;;;15.40;99.90;;;;;;5074090;28;20191;-48
2023/07/23 02:55:36;;;;;;;13.03;11.67;;;15.50;99.90;;;;;;5094093;28;20586;-45
2023/07/23 02:58:03;;;;;;;12.53;11.33;;;15.50;99.90;;;;;;5073314;28;20314;-45
2023/07/23 03:00:30;;;;;;;13.63;11.67;;;15.40;99.90;;;;;;5072498;28;20177;-44
2023/07/23 03:02:56;;;;;;;12.53;11.17;;;15.50;99.90;;;;;;5072793;28;20545;-47
2023/07/23 03:05:24;;;;;;;11.00;10.00;;;15.50;99.90;;;;;;5073849;28;20180;-45
2023/07/23 03:07:53;;;;;;;12.33;10.87;;;15.50;99.90;;;;;;5072006;28;20395;-46
2023/07/23 03:10:19;;;;;;;11.73;10.60;;;15.50;99.90;;;;;;5071284;28;20262;-44
2023/07/23 03:12:45;;;;;;;13.93;10.83;;;15.50;99.90;;;;;;5072966;28;20579;-45
2023/07/23 03:15:10;;;;;;;12.33;10.80;;;15.50;99.90;;;;;;5073974;28;20176;-49
2023/07/23 03:17:36;;;;;;;12.90;11.67;;;15.60;99.90;;;;;;5073849;28;20282;-45
2023/07/23 03:20:03;;;;;;;14.13;12.83;;;15.60;99.90;;;;;;5074974;28;20175;-49
2023/07/23 03:22:29;;;;;;;13.83;12.63;;;15.50;99.90;;;;;;5073308;28;20173;-45
2023/07/23 03:24:54;;;;;;;13.27;11.90;;;15.50;99.90;;;;;;5075533;28;20183;-45
2023/07/23 03:27:21;;;;;;;13.50;12.20;;;15.50;99.90;;;;;;5075196;28;20249;-46
2023/07/23 03:29:46;;;;;;;13.27;12.07;;;15.50;99.90;;;;;;5074648;28;20180;-46
2023/07/23 03:32:12;;;;;;;13.47;12.10;;;15.50;99.90;;;;;;5073796;28;20463;-46
2023/07/23 03:34:38;;;;;;;14.37;12.87;;;15.60;99.90;;;;;;5075310;28;20165;-49
2023/07/23 03:37:03;;;;;;;11.27;10.37;;;15.50;99.90;;;;;;5074683;28;20230;-48
2023/07/23 03:39:29;;;;;;;13.33;12.03;;;15.50;99.90;;;;;;5074285;28;20529;-45
2023/07/23 03:41:55;;;;;;;13.03;11.83;;;15.50;99.90;;;;;;5073266;28;20259;-49
2023/07/23 03:44:20;;;;;;;14.30;12.27;;;15.50;99.90;;;;;;5073651;28;20443;-44
2023/07/23 03:47:04;;;;;;;13.83;12.50;;;15.50;99.90;;;;;;5072760;28;20230;-45
2023/07/23 03:49:30;;;;;;;13.17;11.50;;;15.50;99.90;;;;;;5072071;28;20494;-43
2023/07/23 03:52:23;;;;;;;12.23;10.77;;;15.50;99.90;;;;;;5074778;28;20169;-44
2023/07/23 03:54:49;;;;;;;12.33;10.43;;;15.50;99.90;;;;;;5073633;28;20454;-45
2023/07/23 03:57:15;;;;;;;11.80;10.10;;;15.40;99.90;;;;;;5074158;28;20561;-47
2023/07/23 03:59:45;;;;;;;10.53;9.50;;;15.50;99.90;;;;;;5077011;28;20171;-46
2023/07/23 04:02:10;;;;;;;13.57;10.93;;;15.50;99.90;;;;;;5077081;28;20230;-44
2023/07/23 04:04:39;;;;;;;12.63;11.27;;;15.50;99.90;;;;;;5061444;28;20199;-44
2023/07/23 04:07:06;;;;;;;11.70;9.70;;;15.50;99.90;;;;;;5094104;28;20188;-46
2023/07/23 04:09:32;;;;;;;11.33;8.87;;;15.50;99.90;;;;;;5077015;28;20182;-47
2023/07/23 04:11:58;;;;;;;11.30;10.10;;;15.60;99.90;;;;;;5076789;28;20271;-49
2023/07/23 04:14:24;;;;;;;13.47;11.03;;;15.60;99.90;;;;;;5075204;28;20160;-47
2023/07/23 04:16:50;;;;;;;14.00;10.70;;;15.50;99.90;;;;;;5075731;28;20358;-46
2023/07/23 04:19:16;;;;;;;16.07;10.40;;;15.50;99.90;;;;;;5076514;28;20199;-48
2023/07/23 04:21:42;;;;;;;12.17;10.87;;;15.50;99.90;;;;;;5096860;28;20170;-47
2023/07/23 04:24:07;;;;;;;13.80;10.27;;;15.50;99.90;;;;;;5077895;28;20176;-46
2023/07/23 04:26:33;;;;;;;10.90;9.80;;;15.50;99.90;;;;;;5078228;28;20238;-44
2023/07/23 04:29:00;;;;;;;10.63;9.53;;;15.50;99.90;;;;;;5078101;28;20207;-47
2023/07/23 04:31:26;;;;;;;12.67;10.30;;;15.50;99.90;;;;;;5079365;28;20196;-47
2023/07/23 04:33:52;;;;;;;12.23;10.40;;;15.50;99.90;;;;;;5079487;28;20279;-44
2023/07/23 04:36:17;;;;;;;12.63;11.00;;;15.40;99.90;;;;;;5096525;28;20168;-48
2023/07/23 04:38:44;;;;;;;11.53;10.33;;;15.40;99.90;;;;;;5080045;28;20202;-47
2023/07/23 04:41:10;;;;;;;11.47;10.10;;;15.40;99.90;;;;;;5097220;28;20223;-44
2023/07/23 04:43:37;;;;;;;13.53;10.27;;;15.40;99.90;;;;;;5079383;28;20168;-46
2023/07/23 04:46:06;;;;;;;10.43;8.60;;;15.30;99.90;;;;;;5095920;28;20164;-45
2023/07/23 04:48:36;;;;;;;10.97;9.43;;;15.30;99.90;;;;;;5098379;28;20200;-45
2023/07/23 04:51:03;;;;;;;12.93;10.33;;;15.30;99.90;;;;;;5097256;28;20504;-44
2023/07/23 04:53:29;;;;;;;11.73;10.53;;;15.30;99.90;;;;;;5079681;28;20183;-46
2023/07/23 04:55:58;;;;;;;12.77;11.10;;;15.30;99.90;;;;;;5098287;28;20175;-44
2023/07/23 04:58:25;;;;;;;12.03;10.77;;;15.30;99.90;;;;;;5069280;28;20237;-46
2023/07/23 05:00:52;;;;;;;13.67;11.33;;;15.30;99.90;;;;;;5059070;28;20275;-44
2023/07/23 05:03:18;;;;;;;11.87;9.80;;;15.20;99.90;;;;;;5059152;28;20208;-45
2023/07/23 05:05:46;;;;;;;12.40;9.87;;;15.30;99.90;;;;;;5059051;28;20249;-46
2023/07/23 05:08:11;;;;;;;10.80;8.80;;;15.20;99.90;;;;;;5058983;28;20647;-46
2023/07/23 05:10:38;;;;;;;12.57;8.73;;;15.20;99.90;;;;;;5058401;28;20246;-46
2023/07/23 05:13:04;;;;;;;10.03;8.97;;;15.30;99.90;;;;;;5056439;28;20269;-46
2023/07/23 05:15:30;;;;;;;12.00;9.27;;;15.30;99.90;;;;;;5074613;28;20252;-43
2023/07/23 05:17:56;;;;;;;11.43;10.10;;;15.30;99.90;;;;;;5058097;28;20411;-48
2023/07/23 05:20:21;;;;;;;9.67;8.63;;;15.30;99.90;;;;;;5058284;28;20353;-44
2023/07/23 05:22:47;;;;;;;10.23;9.17;;;15.30;99.90;;;;;;5057515;28;20169;-47
2023/07/23 05:25:12;;;;;;;12.10;10.00;;;15.30;99.90;;;;;;5076154;28;20169;-45
2023/07/23 05:27:38;;;;;;;13.87;9.67;;;15.30;99.90;;;;;;5076065;28;20219;-45
2023/07/23 05:30:05;;;;;;;10.33;9.13;;;15.20;99.90;;;;;;5075337;28;20161;-44
2023/07/23 05:32:31;;;;;;;11.33;9.83;;;15.20;99.90;;;;;;5057986;28;20199;-44
2023/07/23 05:34:57;;;;;;;13.57;10.50;;;15.20;99.90;;;;;;5057544;28;20234;-48
2023/07/23 05:37:23;;;;;;;17.10;13.20;;;15.20;99.90;;;;;;5058565;28;20169;-47
2023/07/23 05:39:49;;;;;;;12.67;11.47;;;15.20;99.90;;;;;;5059965;28;20169;-45
2023/07/23 05:42:15;;;;;;;10.97;9.87;;;15.20;99.90;;;;;;5059829;28;20184;-43
2023/07/23 05:44:40;;;;;;;10.70;9.57;;;15.20;99.90;;;;;;5059055;28;20494;-44
2023/07/23 05:47:07;;;;;;;9.93;8.77;;;15.20;99.90;;;;;;5076111;28;20187;-44
2023/07/23 05:49:32;;;;;;;9.60;8.30;;;15.20;99.90;;;;;;5074789;28;20607;-44
2023/07/23 05:51:59;;;;;;;11.73;7.97;;;15.20;99.90;;;;;;5073950;28;20165;-44
2023/07/23 05:54:25;;;;;;;8.47;7.50;;;15.20;99.90;;;;;;5056271;28;20196;-44
2023/07/23 05:56:51;;;;;;;10.27;8.30;;;15.10;99.90;;;;;;5055704;28;20181;-45
2023/07/23 05:59:16;;;;;;;10.30;9.30;;;15.10;99.90;;;;;;5046491;28;20233;-46
2023/07/23 06:01:42;;;;;;;11.40;9.60;;;15.10;99.90;;;;;;5040030;28;20196;-45
2023/07/23 06:04:08;;;;;;;11.93;10.83;;;15.10;99.90;;;;;;5039832;28;20169;-45
2023/07/23 06:06:34;;;;;;;11.10;10.10;;;15.10;99.90;;;;;;5058923;28;20261;-45
2023/07/23 06:08:59;;;;;;;12.53;11.33;;;15.10;99.90;;;;;;5040769;28;20205;-44
2023/07/23 06:11:25;;;;;;;11.10;9.47;;;15.10;99.90;;;;;;5038012;28;20174;-44
2023/07/23 06:13:50;;;;;;;13.33;9.87;;;15.10;99.90;;;;;;5035861;28;20189;-46
2023/07/23 06:16:16;;;;;;;10.33;9.33;;;15.10;99.90;;;;;;5036476;28;20191;-44
2023/07/23 06:18:41;;;;;;;11.40;9.10;;;15.10;99.90;;;;;;5037537;28;20181;-45
2023/07/23 06:21:07;;;;;;;10.10;8.43;;;15.10;99.90;;;;;;5037332;28;20169;-44
2023/07/23 06:23:34;;;;;;;11.63;9.30;;;15.10;99.90;;;;;;5035665;28;20275;-45
2023/07/23 06:25:59;;;;;;;10.73;9.27;;;15.20;99.90;;;;;;5035212;28;20217;-44
2023/07/23 06:28:25;;;;;;;10.90;9.43;;;15.20;99.90;;;;;;5039296;28;20240;-44
2023/07/23 06:30:52;;;;;;;10.10;9.07;;;15.20;99.90;;;;;;5034239;28;20527;-45
2023/07/23 06:33:17;;;;;;;12.97;9.40;;;15.20;99.90;;;;;;5033612;28;20501;-45
2023/07/23 06:35:43;;;;;;;14.43;12.20;;;15.20;99.90;;;;;;5051069;28;20558;-45
2023/07/23 06:38:09;;;;;;;12.23;11.13;;;15.20;99.90;;;;;;5034537;28;20302;-45
2023/07/23 06:40:35;;;;;;;14.10;12.83;;;15.20;99.90;;;;;;5035817;28;20280;-44
2023/07/23 06:43:00;;;;;;;12.50;11.50;;;15.30;99.90;;;;;;5035626;28;20173;-45
2023/07/23 06:45:26;;;;;;;14.40;13.20;;;15.30;99.90;;;;;;5036106;28;20173;-44
2023/07/23 06:47:52;;;;;;;16.13;14.83;;;15.30;99.90;;;;;;5054364;28;20284;-47
2023/07/23 06:50:18;;;;;;;21.10;19.27;;;15.30;99.90;;;;;;5037695;28;20181;-51
2023/07/23 06:52:44;;;;;;;16.83;15.50;;;15.30;99.90;;;;;;5054636;28;20169;-45
2023/07/23 06:55:09;;;;;;;12.43;11.23;;;15.30;99.90;;;;;;5053691;28;20197;-45
2023/07/23 06:57:35;;;;;;;16.00;14.33;;;15.30;99.90;;;;;;5035089;28;20263;-45
2023/07/23 07:00:01;;;;;;;10.70;9.60;;;15.30;99.90;;;;;;5036340;28;20201;-44
2023/07/23 07:02:26;;;;;;;9.67;8.77;;;15.40;99.90;;;;;;5036664;28;20169;-47
2023/07/23 07:04:52;;;;;;;10.20;9.20;;;15.40;99.90;;;;;;5036237;28;20222;-45
2023/07/23 07:07:17;;;;;;;11.43;8.93;;;15.50;99.90;;;;;;5035698;28;20177;-45
2023/07/23 07:09:43;;;;;;;12.67;11.03;;;15.50;99.90;;;;;;5034420;28;20579;-46
2023/07/23 07:12:09;;;;;;;14.87;13.57;;;15.60;99.90;;;;;;5035204;28;20201;-46
2023/07/23 07:14:35;;;;;;;15.27;14.10;;;15.50;99.90;;;;;;5035879;28;20200;-44
2023/07/23 07:17:00;;;;;;;17.83;16.47;;;15.50;99.90;;;;;;5035895;28;20230;-44
2023/07/23 07:19:26;;;;;;;15.70;14.27;;;15.60;99.90;;;;;;5036586;28;20550;-44
2023/07/23 07:21:51;;;;;;;12.67;11.37;;;15.60;99.90;;;;;;5053283;28;20629;-46
2023/07/23 07:24:17;;;;;;;14.57;13.33;;;15.60;99.90;;;;;;5035303;28;20187;-44
2023/07/23 07:26:43;;;;;;;15.50;13.83;;;15.70;99.90;;;;;;5034713;28;20177;-47
2023/07/23 07:29:08;;;;;;;16.03;14.60;;;15.70;99.90;;;;;;5050578;28;20216;-44
2023/07/23 07:31:34;;;;;;;16.17;14.67;;;15.70;99.90;;;;;;5034097;28;20508;-46
2023/07/23 07:34:00;;;;;;;17.17;15.77;;;15.70;99.90;;;;;;5034028;28;20192;-45
2023/07/23 07:36:26;;;;;;;16.53;15.07;;;15.70;99.90;;;;;;5034105;28;20176;-45
2023/07/23 07:38:51;;;;;;;16.53;15.33;;;15.80;99.90;;;;;;5053715;28;20174;-47
2023/07/23 07:41:17;;;;;;;15.53;14.30;;;15.80;99.90;;;;;;5036462;28;20189;-45
2023/07/23 07:43:43;;;;;;;16.23;14.83;;;15.80;99.90;;;;;;5035298;28;20181;-46
2023/07/23 07:46:09;;;;;;;16.03;14.73;;;15.80;99.90;;;;;;5034562;28;20180;-44
2023/07/23 07:48:37;;;;;;;16.30;15.10;;;15.90;99.90;;;;;;5051616;28;20189;-44
2023/07/23 07:51:07;;;;;;;19.60;18.00;;;15.90;99.90;;;;;;5050154;28;20161;-45
2023/07/23 07:53:34;;;;;;;18.40;17.00;;;16.00;99.90;;;;;;5032079;28;20459;-47
2023/07/23 07:56:00;;;;;;;17.27;15.77;;;16.00;99.90;;;;;;5050298;28;20173;-44
2023/07/23 07:58:27;;;;;;;16.97;15.67;;;16.00;99.90;;;;;;5032223;28;20229;-44
2023/07/23 08:00:59;;;;;;;14.97;13.67;;;16.00;99.90;;;;;;5032134;28;20200;-45
2023/07/23 08:03:26;;;;;;;16.37;14.87;;;16.00;99.90;;;;;;5031475;28;20234;-45
2023/07/23 08:05:53;;;;;;;10.13;9.13;;;16.00;99.90;;;;;;5032626;28;20363;-45
2023/07/23 08:08:23;;;;;;;11.33;9.90;;;16.10;99.90;;;;;;5033415;28;20209;-47
2023/07/23 08:10:49;;;;;;;12.30;10.37;;;16.10;99.90;;;;;;5034808;28;20238;-44
2023/07/23 08:13:16;;;;;;;12.53;11.23;;;16.10;99.90;;;;;;5032557;28;20173;-45
2023/07/23 08:15:42;;;;;;;12.83;11.67;;;16.10;99.90;;;;;;5051369;28;20256;-48
2023/07/23 08:18:08;;;;;;;13.13;11.83;;;16.20;99.90;;;;;;5052431;28;20264;-47
2023/07/23 08:20:34;;;;;;;12.67;11.47;;;16.20;99.90;;;;;;5035292;28;20165;-45
2023/07/23 08:23:01;;;;;;;15.33;13.93;;;16.20;99.90;;;;;;5034677;28;20271;-46
2023/07/23 08:25:29;;;;;;;12.60;11.50;;;16.20;99.90;;;;;;5033620;28;20559;-45
2023/07/23 08:28:00;;;;;;;14.07;12.73;;;16.20;99.90;;;;;;5050579;28;20208;-45
2023/07/23 08:30:29;;;;;;;12.17;11.07;;;16.30;99.90;;;;;;5050692;28;20165;-45
2023/07/23 08:32:56;;;;;;;12.57;11.50;;;16.40;99.90;;;;;;5034140;28;20323;-44
2023/07/23 08:35:23;;;;;;;13.33;12.00;;;16.40;99.90;;;;;;5034604;28;20195;-44
2023/07/23 08:37:50;;;;;;;12.40;11.10;;;16.40;99.90;;;;;;5050905;28;20248;-44
2023/07/23 08:40:16;;;;;;;11.63;10.50;;;16.40;99.90;;;;;;5050676;28;20334;-45
2023/07/23 08:42:53;;;;;;;10.63;9.57;;;16.40;99.90;;;;;;5049745;28;20181;-50
2023/07/23 08:45:37;;;;;;;10.47;8.93;;;16.50;99.90;;;;;;5032400;28;20165;-46
2023/07/23 08:48:16;;;;;;;9.70;8.03;;;16.50;99.90;;;;;;5032494;28;20228;-45
2023/07/23 08:50:49;;;;;;;9.17;7.93;;;16.50;99.90;;;;;;5032368;28;20565;-47
2023/07/23 08:53:16;;;;;;;9.23;8.27;;;16.60;99.90;;;;;;5031953;28;20170;-45
2023/07/23 08:55:44;;;;;;;8.80;7.33;;;16.60;99.90;;;;;;5032509;28;20539;-45
2023/07/23 08:58:14;;;;;;;9.77;8.77;;;16.70;99.90;;;;;;5030959;28;20228;-46
2023/07/23 09:00:44;;;;;;;9.10;8.10;;;16.70;99.90;;;;;;5030680;28;20193;-45
2023/07/23 09:03:11;;;;;;;8.27;6.27;;;16.70;99.90;;;;;;5031559;28;20422;-45
2023/07/23 09:05:39;;;;;;;9.90;7.77;;;16.70;99.90;;;;;;5032755;28;20248;-44
2023/07/23 09:08:05;;;;;;;9.57;8.17;;;16.70;99.90;;;;;;5034908;28;20207;-45
2023/07/23 09:10:31;;;;;;;11.50;7.87;;;16.80;99.90;;;;;;5035178;28;20173;-46
2023/07/23 09:12:56;;;;;;;9.03;7.37;;;16.80;99.90;;;;;;5034741;28;20169;-47
2023/07/23 09:15:22;;;;;;;10.00;7.87;;;16.80;99.90;;;;;;5034838;28;20174;-45
2023/07/23 09:17:51;;;;;;;10.53;8.77;;;16.80;99.90;;;;;;5035321;28;20172;-44
2023/07/23 09:20:18;;;;;;;10.93;9.37;;;16.80;99.90;;;;;;5035176;28;20276;-45
2023/07/23 09:22:45;;;;;;;8.73;7.50;;;16.80;99.90;;;;;;5034582;28;20181;-45
2023/07/23 09:25:11;;;;;;;8.30;7.47;;;16.90;99.90;;;;;;5033901;28;20173;-46
2023/07/23 09:27:38;;;;;;;8.90;8.00;;;16.90;99.90;;;;;;5052798;28;20177;-45
2023/07/23 09:30:04;;;;;;;12.03;9.00;;;16.90;99.90;;;;;;5053092;28;20165;-46
2023/07/23 09:32:30;;;;;;;10.20;8.80;;;16.90;99.90;;;;;;5034007;28;20265;-46
2023/07/23 09:34:57;;;;;;;10.50;9.30;;;17.00;99.90;;;;;;5034949;28;20173;-45
2023/07/23 09:37:26;;;;;;;11.93;9.23;;;17.00;99.90;;;;;;5051809;28;20161;-45
2023/07/23 09:39:57;;;;;;;9.20;7.87;;;17.00;99.90;;;;;;5036069;28;20582;-45
2023/07/23 09:42:24;;;;;;;9.53;7.83;;;17.00;99.90;;;;;;5053422;28;20235;-46
2023/07/23 09:44:51;;;;;;;10.83;9.20;;;17.00;99.90;;;;;;5035389;28;20173;-48
2023/07/23 09:47:23;;;;;;;11.33;10.27;;;17.00;99.90;;;;;;5037991;28;20173;-45
2023/07/23 09:49:50;;;;;;;9.67;8.70;;;17.10;99.90;;;;;;5037583;28;20173;-48
2023/07/23 09:52:15;;;;;;;11.23;8.63;;;17.10;99.90;;;;;;5054550;28;20298;-49
2023/07/23 09:54:41;;;;;;;10.67;9.57;;;17.10;99.90;;;;;;5037223;28;20203;-45
2023/07/23 09:57:09;;;;;;;8.83;7.90;;;17.10;99.90;;;;;;5037366;28;20272;-45
2023/07/23 09:59:36;;;;;;;12.60;10.43;;;17.20;99.90;;;;;;5035912;28;20228;-44
2023/07/23 10:02:03;;;;;;;14.30;12.73;;;17.20;99.90;;;;;;5053580;28;20231;-45
2023/07/23 10:04:31;;;;;;;11.73;10.63;;;17.10;99.90;;;;;;5036718;28;20177;-46
2023/07/23 10:06:57;;;;;;;10.43;9.53;;;17.20;99.90;;;;;;5036110;28;20170;-47
2023/07/23 10:09:23;;;;;;;14.30;11.80;;;17.20;99.90;;;;;;5034173;28;20271;-46
2023/07/23 10:11:49;;;;;;;12.53;11.23;;;17.20;99.90;;;;;;5034506;28;20180;-48
2023/07/23 10:14:14;;;;;;;12.57;11.40;;;17.20;99.90;;;;;;5033815;28;20173;-44
2023/07/23 10:16:44;;;;;;;13.50;12.13;;;17.30;99.90;;;;;;5033627;28;20540;-48
2023/07/23 10:19:11;;;;;;;10.47;9.50;;;17.30;99.90;;;;;;5051294;28;20445;-46
2023/07/23 10:21:37;;;;;;;16.97;13.33;;;17.40;99.90;;;;;;5034805;28;20173;-47
2023/07/23 10:24:03;;;;;;;12.43;11.40;;;17.40;99.90;;;;;;5039146;28;20181;-46
2023/07/23 10:26:38;;;;;;;15.20;13.30;;;17.50;99.90;;;;;;5057622;28;20250;-46
2023/07/23 10:29:11;;;;;;;14.83;13.33;;;17.50;99.90;;;;;;5057657;28;20193;-46
2023/07/23 10:31:41;;;;;;;14.67;13.27;;;17.60;99.90;;;;;;5040253;28;20269;-48
2023/07/23 10:34:26;;;;;;;13.93;12.50;;;17.60;99.90;;;;;;5039068;28;20183;-47
2023/07/23 10:37:19;;;;;;;15.50;14.10;;;17.70;99.90;;;;;;5055369;28;20224;-46
2023/07/23 10:39:58;;;;;;;14.97;13.53;;;17.70;99.90;;;;;;5054623;28;20189;-44
2023/07/23 10:42:36;;;;;;;17.20;15.80;;;17.80;99.90;;;;;;5036688;28;20181;-45
2023/07/23 10:45:15;;;;;;;16.50;15.20;;;17.80;99.90;;;;;;5036486;28;20260;-44
2023/07/23 10:47:53;;;;;;;19.00;17.40;;;17.80;99.90;;;;;;5034640;28;20169;-44
2023/07/23 10:50:20;;;;;;;16.90;15.63;;;17.80;99.90;;;;;;5036779;28;20454;-45
2023/07/23 10:52:48;;;;;;;16.27;14.77;;;17.80;99.90;;;;;;5054984;28;20169;-45
2023/07/23 10:55:46;;;;;;;16.83;15.37;;;17.90;99.90;;;;;;5056643;28;20193;-47
2023/07/23 10:58:14;;;;;;;17.00;15.50;;;17.80;99.90;;;;;;5064007;28;20235;-45
2023/07/23 11:00:45;;;;;;;20.33;18.70;;;17.90;99.90;;;;;;5058192;28;20183;-47
2023/07/23 11:03:18;;;;;;;22.60;20.57;;;17.90;99.90;;;;;;5058820;28;20169;-47
2023/07/23 11:05:44;;;;;;;31.63;29.53;;;17.90;99.90;;;;;;5057933;28;20183;-45
2023/07/23 11:08:23;;;;;;;40.43;37.83;;;17.90;99.90;;;;;;5057928;28;20587;-45
2023/07/23 11:10:59;;;;;;;32.03;29.67;;;17.90;99.90;;;;;;5057714;28;20172;-45
2023/07/23 11:13:31;;;;;;;35.33;32.90;;;18.00;99.90;;;;;;5076246;28;20168;-44
2023/07/23 11:15:57;;;;;;;27.77;25.87;;;17.90;99.90;;;;;;5058808;28;20556;-44
2023/07/23 11:18:23;;;;;;;20.47;18.70;;;17.90;99.90;;;;;;5058375;28;20179;-44
2023/07/23 11:20:50;;;;;;;20.87;19.27;;;17.90;99.90;;;;;;5059703;28;20226;-44
2023/07/23 11:23:17;;;;;;;25.40;23.70;;;17.90;99.90;;;;;;5059524;28;20177;-47
2023/07/23 11:25:44;;;;;;;18.37;16.57;;;17.80;99.90;;;;;;5058951;28;20196;-45
2023/07/23 11:28:10;;;;;;;17.00;15.23;;;17.70;99.90;;;;;;5057452;28;20200;-44
2023/07/23 11:30:36;;;;;;;15.13;13.77;;;17.70;99.90;;;;;;5057973;28;20176;-44
2023/07/23 11:33:02;;;;;;;14.23;13.03;;;17.60;99.90;;;;;;5074789;28;20164;-49
2023/07/23 11:35:28;;;;;;;18.30;12.50;;;17.60;99.90;;;;;;5073825;28;20191;-47
2023/07/23 11:37:54;;;;;;;13.33;12.07;;;17.50;99.90;;;;;;5074407;28;20564;-45
2023/07/23 11:40:21;;;;;;;12.67;11.43;;;17.40;99.90;;;;;;5056394;28;20169;-46
2023/07/23 11:42:47;;;;;;;10.90;9.80;;;17.40;99.90;;;;;;5074801;28;20176;-46
2023/07/23 11:45:13;;;;;;;12.47;11.23;;;17.30;99.90;;;;;;5057710;28;20179;-49
2023/07/23 11:47:53;;;;;;;14.17;12.67;;;17.20;99.90;;;;;;5056904;28;20172;-49
2023/07/23 11:50:20;;;;;;;15.87;13.23;;;17.20;99.90;;;;;;5056611;28;20211;-45
2023/07/23 11:52:47;;;;;;;12.60;10.57;;;17.10;99.90;;;;;;5056650;28;20174;-48
2023/07/23 11:55:25;;;;;;;15.23;13.73;;;17.00;99.90;;;;;;5057145;28;20772;-44
2023/07/23 11:57:58;;;;;;;16.70;15.30;;;17.00;99.90;;;;;;5054804;28;20221;-47
2023/07/23 12:00:37;;;;;;;14.97;12.07;;;16.90;99.90;;;;;;5054841;28;20718;-48
2023/07/23 12:03:09;;;;;;;22.77;20.80;;;16.90;99.90;;;;;;5054716;28;20306;-47
2023/07/23 12:06:11;;;;;;;14.63;13.00;;;16.80;99.90;;;;;;5055392;28;20216;-46
2023/07/23 12:08:38;;;;;;;19.07;16.13;;;16.80;99.90;;;;;;5054462;28;20490;-47
2023/07/23 12:11:12;;;;;;;17.20;15.07;;;16.70;99.90;;;;;;5054495;28;20166;-47
2023/07/23 12:13:51;;;;;;;14.90;13.40;;;16.70;99.90;;;;;;5053787;28;20165;-48
2023/07/23 12:16:41;;;;;;;13.73;12.07;;;16.70;99.90;;;;;;5054793;28;20157;-48
2023/07/23 12:19:08;;;;;;;15.83;14.30;;;16.70;99.90;;;;;;5054809;28;20173;-45
2023/07/23 12:21:36;;;;;;;16.23;14.67;;;16.60;99.90;;;;;;5055971;28;20154;-46
2023/07/23 12:24:29;;;;;;;15.37;12.80;;;16.70;99.90;;;;;;5056022;28;20213;-48
2023/07/23 12:27:15;;;;;;;18.10;16.33;;;16.70;99.90;;;;;;5054566;28;20189;-46
2023/07/23 12:29:42;;;;;;;14.33;12.93;;;16.60;99.90;;;;;;5055858;28;20801;-49
2023/07/23 12:32:15;;;;;;;13.00;11.80;;;16.60;99.90;;;;;;5055610;28;20261;-49
2023/07/23 12:34:43;;;;;;;12.57;11.37;;;16.60;99.90;;;;;;5055796;28;20305;-45